sensor_id;sensor_type;location;lat;lon;timestamp;temperature;humidity
15922;DHT22;8060;50.948;3.146;2023-11-19T00:01:18;14.00;99.90
15922;DHT22;8060;50.948;3.146;2023-11-19T00:03:47;14.00;99.90
15922;DHT22;8060;50.948;3.146;2023-11-19T00:06:17;13.90;99.90
15922;DHT22;8060;50.948;3.146;2023-11-19T00:08:45;13.90;99.90
15922;DHT22;8060;50.948;3.146;2023-11-19T00:11:12;13.90;99.90
15922;DHT22;8060;50.948;3.146;2023-11-19T00:13:42;13.90;99.90
15922;DHT22;8060;50.948;3.146;2023-11-19T00:16:10;13.90;99.90
15922;DHT22;8060;50.948;3.146;2023-11-19T00:18:40;13.90;99.90
15922;DHT22;8060;50.948;3.146;2023-11-19T00:21:08;13.90;99.90
15922;DHT22;8060;50.948;3.146;2023-11-19T00:23:37;13.90;99.90
15922;DHT22;8060;50.948;3.146;2023-11-19T00:26:05;13.90;99.90
15922;DHT22;8060;50.948;3.146;2023-11-19T00:28:33;13.90;99.90
15922;DHT22;8060;50.948;3.146;2023-11-19T00:31:05;13.80;99.90
15922;DHT22;8060;50.948;3.146;2023-11-19T00:33:34;13.80;99.90
15922;DHT22;8060;50.948;3.146;2023-11-19T00:36:17;13.80;99.90
15922;DHT22;8060;50.948;3.146;2023-11-19T00:38:45;13.90;99.90
15922;DHT22;8060;50.948;3.146;2023-11-19T00:41:13;13.80;99.90
15922;DHT22;8060;50.948;3.146;2023-11-19T00:43:43;13.90;99.90
15922;DHT22;8060;50.948;3.146;2023-11-19T00:46:11;13.80;99.90
15922;DHT22;8060;50.948;3.146;2023-11-19T00:48:40;13.80;99.90
15922;DHT22;8060;50.948;3.146;2023-11-19T00:51:08;13.80;99.90
15922;DHT22;8060;50.948;3.146;2023-11-19T00:53:39;13.70;99.90
15922;DHT22;8060;50.948;3.146;2023-11-19T00:56:07;13.70;99.90
15922;DHT22;8060;50.948;3.146;2023-11-19T00:58:35;13.70;99.90
15922;DHT22;8060;50.948;3.146;2023-11-19T01:01:04;13.70;99.90
15922;DHT22;8060;50.948;3.146;2023-11-19T01:03:32;13.70;99.90
15922;DHT22;8060;50.948;3.146;2023-11-19T01:06:01;13.70;99.90
15922;DHT22;8060;50.948;3.146;2023-11-19T01:08:29;13.70;99.90
15922;DHT22;8060;50.948;3.146;2023-11-19T01:10:58;13.60;99.90
15922;DHT22;8060;50.948;3.146;2023-11-19T01:13:27;13.60;99.90
15922;DHT22;8060;50.948;3.146;2023-11-19T01:15:55;13.50;99.90
15922;DHT22;8060;50.948;3.146;2023-11-19T01:18:23;13.50;99.90
15922;DHT22;8060;50.948;3.146;2023-11-19T01:20:51;13.50;99.90
15922;DHT22;8060;50.948;3.146;2023-11-19T01:23:19;13.40;99.90
15922;DHT22;8060;50.948;3.146;2023-11-19T01:25:47;13.50;99.90
15922;DHT22;8060;50.948;3.146;2023-11-19T01:28:17;13.40;99.90
15922;DHT22;8060;50.948;3.146;2023-11-19T01:30:46;13.40;99.90
15922;DHT22;8060;50.948;3.146;2023-11-19T01:33:14;13.40;99.90
15922;DHT22;8060;50.948;3.146;2023-11-19T01:35:42;13.40;99.90
15922;DHT22;8060;50.948;3.146;2023-11-19T01:38:10;13.40;99.90
15922;DHT22;8060;50.948;3.146;2023-11-19T01:40:38;13.40;99.90
15922;DHT22;8060;50.948;3.146;2023-11-19T01:43:06;13.30;99.90
15922;DHT22;8060;50.948;3.146;2023-11-19T01:45:39;13.40;99.90
15922;DHT22;8060;50.948;3.146;2023-11-19T01:48:08;13.40;99.90
15922;DHT22;8060;50.948;3.146;2023-11-19T01:50:38;13.40;99.90
15922;DHT22;8060;50.948;3.146;2023-11-19T01:53:07;13.40;99.90
15922;DHT22;8060;50.948;3.146;2023-11-19T01:55:35;13.40;99.90
15922;DHT22;8060;50.948;3.146;2023-11-19T01:58:03;13.30;99.90
15922;DHT22;8060;50.948;3.146;2023-11-19T02:00:31;13.30;99.90
15922;DHT22;8060;50.948;3.146;2023-11-19T02:03:02;13.40;99.90
15922;DHT22;8060;50.948;3.146;2023-11-19T02:05:32;13.40;99.90
15922;DHT22;8060;50.948;3.146;2023-11-19T02:08:00;13.40;99.90
15922;DHT22;8060;50.948;3.146;2023-11-19T02:10:30;13.30;99.90
15922;DHT22;8060;50.948;3.146;2023-11-19T02:12:59;13.30;99.90
15922;DHT22;8060;50.948;3.146;2023-11-19T02:15:30;13.30;99.90
15922;DHT22;8060;50.948;3.146;2023-11-19T02:18:18;13.30;99.90
15922;DHT22;8060;50.948;3.146;2023-11-19T02:20:47;13.30;99.90
15922;DHT22;8060;50.948;3.146;2023-11-19T02:23:18;13.30;99.90
15922;DHT22;8060;50.948;3.146;2023-11-19T02:25:51;13.30;99.90
15922;DHT22;8060;50.948;3.146;2023-11-19T02:28:24;13.30;99.90
15922;DHT22;8060;50.948;3.146;2023-11-19T02:30:52;13.30;99.90
15922;DHT22;8060;50.948;3.146;2023-11-19T02:33:21;13.30;99.90
15922;DHT22;8060;50.948;3.146;2023-11-19T02:35:49;13.30;99.90
15922;DHT22;8060;50.948;3.146;2023-11-19T02:38:18;13.30;99.90
15922;DHT22;8060;50.948;3.146;2023-11-19T02:40:47;13.30;99.90
15922;DHT22;8060;50.948;3.146;2023-11-19T02:43:15;13.20;99.90
15922;DHT22;8060;50.948;3.146;2023-11-19T02:45:46;13.20;99.90
15922;DHT22;8060;50.948;3.146;2023-11-19T02:48:14;13.10;99.90
15922;DHT22;8060;50.948;3.146;2023-11-19T02:50:42;13.20;99.90
15922;DHT22;8060;50.948;3.146;2023-11-19T02:53:10;13.20;99.90
15922;DHT22;8060;50.948;3.146;2023-11-19T02:55:40;13.10;99.90
15922;DHT22;8060;50.948;3.146;2023-11-19T02:58:08;13.10;99.90
15922;DHT22;8060;50.948;3.146;2023-11-19T03:00:48;13.10;99.90
15922;DHT22;8060;50.948;3.146;2023-11-19T03:03:24;13.10;99.90
15922;DHT22;8060;50.948;3.146;2023-11-19T03:05:57;13.10;99.90
15922;DHT22;8060;50.948;3.146;2023-11-19T03:08:25;13.10;99.90
15922;DHT22;8060;50.948;3.146;2023-11-19T03:10:54;13.10;99.90
15922;DHT22;8060;50.948;3.146;2023-11-19T03:13:22;13.10;99.90
15922;DHT22;8060;50.948;3.146;2023-11-19T03:15:51;13.10;99.90
15922;DHT22;8060;50.948;3.146;2023-11-19T03:18:20;13.10;99.90
15922;DHT22;8060;50.948;3.146;2023-11-19T03:20:49;13.00;99.90
15922;DHT22;8060;50.948;3.146;2023-11-19T03:23:17;13.00;99.90
15922;DHT22;8060;50.948;3.146;2023-11-19T03:25:45;13.00;99.90
15922;DHT22;8060;50.948;3.146;2023-11-19T03:28:13;13.00;99.90
15922;DHT22;8060;50.948;3.146;2023-11-19T03:30:42;13.00;99.90
15922;DHT22;8060;50.948;3.146;2023-11-19T03:33:11;13.00;99.90
15922;DHT22;8060;50.948;3.146;2023-11-19T03:35:39;13.00;99.90
15922;DHT22;8060;50.948;3.146;2023-11-19T03:38:08;12.90;99.90
15922;DHT22;8060;50.948;3.146;2023-11-19T03:40:36;12.90;99.90
15922;DHT22;8060;50.948;3.146;2023-11-19T03:43:05;12.90;99.90
15922;DHT22;8060;50.948;3.146;2023-11-19T03:45:33;12.80;99.90
15922;DHT22;8060;50.948;3.146;2023-11-19T03:48:03;12.80;99.90
15922;DHT22;8060;50.948;3.146;2023-11-19T03:50:33;12.80;99.90
15922;DHT22;8060;50.948;3.146;2023-11-19T03:53:01;12.80;99.90
15922;DHT22;8060;50.948;3.146;2023-11-19T03:55:31;12.80;99.90
15922;DHT22;8060;50.948;3.146;2023-11-19T03:57:59;12.70;99.90
15922;DHT22;8060;50.948;3.146;2023-11-19T04:00:27;12.80;99.90
15922;DHT22;8060;50.948;3.146;2023-11-19T04:02:55;12.80;99.90
15922;DHT22;8060;50.948;3.146;2023-11-19T04:05:24;12.80;99.90
15922;DHT22;8060;50.948;3.146;2023-11-19T04:07:53;12.80;99.90
15922;DHT22;8060;50.948;3.146;2023-11-19T04:10:21;12.80;99.90
15922;DHT22;8060;50.948;3.146;2023-11-19T04:12:50;12.80;99.90
15922;DHT22;8060;50.948;3.146;2023-11-19T04:15:18;12.80;99.90
15922;DHT22;8060;50.948;3.146;2023-11-19T04:17:46;12.80;99.90
15922;DHT22;8060;50.948;3.146;2023-11-19T04:20:14;12.80;99.90
15922;DHT22;8060;50.948;3.146;2023-11-19T04:22:42;12.80;99.90
15922;DHT22;8060;50.948;3.146;2023-11-19T04:25:12;12.70;99.90
15922;DHT22;8060;50.948;3.146;2023-11-19T04:27:42;12.70;99.90
15922;DHT22;8060;50.948;3.146;2023-11-19T04:30:11;12.70;99.90
15922;DHT22;8060;50.948;3.146;2023-11-19T04:32:39;12.60;99.90
15922;DHT22;8060;50.948;3.146;2023-11-19T04:35:08;12.70;99.90
15922;DHT22;8060;50.948;3.146;2023-11-19T04:37:36;12.60;99.90
15922;DHT22;8060;50.948;3.146;2023-11-19T04:40:06;12.60;99.90
15922;DHT22;8060;50.948;3.146;2023-11-19T04:42:36;12.60;99.90
15922;DHT22;8060;50.948;3.146;2023-11-19T04:45:05;12.50;99.90
15922;DHT22;8060;50.948;3.146;2023-11-19T04:47:34;12.50;99.90
15922;DHT22;8060;50.948;3.146;2023-11-19T04:50:02;12.50;99.90
15922;DHT22;8060;50.948;3.146;2023-11-19T04:52:30;12.50;99.90
15922;DHT22;8060;50.948;3.146;2023-11-19T04:54:59;12.50;99.90
15922;DHT22;8060;50.948;3.146;2023-11-19T04:57:27;12.50;99.90
15922;DHT22;8060;50.948;3.146;2023-11-19T04:59:56;12.50;99.90
15922;DHT22;8060;50.948;3.146;2023-11-19T05:02:24;12.50;99.90
15922;DHT22;8060;50.948;3.146;2023-11-19T05:04:53;12.40;99.90
15922;DHT22;8060;50.948;3.146;2023-11-19T05:07:21;12.40;99.90
15922;DHT22;8060;50.948;3.146;2023-11-19T05:09:49;12.40;99.90
15922;DHT22;8060;50.948;3.146;2023-11-19T05:12:17;12.30;99.90
15922;DHT22;8060;50.948;3.146;2023-11-19T05:14:45;12.30;99.90
15922;DHT22;8060;50.948;3.146;2023-11-19T05:17:18;12.30;99.90
15922;DHT22;8060;50.948;3.146;2023-11-19T05:19:46;12.30;99.90
15922;DHT22;8060;50.948;3.146;2023-11-19T05:22:15;12.30;99.90
15922;DHT22;8060;50.948;3.146;2023-11-19T05:24:43;12.20;99.90
15922;DHT22;8060;50.948;3.146;2023-11-19T05:27:12;12.10;99.90
15922;DHT22;8060;50.948;3.146;2023-11-19T05:29:40;12.10;99.90
15922;DHT22;8060;50.948;3.146;2023-11-19T05:32:09;12.10;99.90
15922;DHT22;8060;50.948;3.146;2023-11-19T05:34:39;12.10;99.90
15922;DHT22;8060;50.948;3.146;2023-11-19T05:37:11;12.10;99.90
15922;DHT22;8060;50.948;3.146;2023-11-19T05:39:39;12.10;99.90
15922;DHT22;8060;50.948;3.146;2023-11-19T05:42:07;12.10;99.90
15922;DHT22;8060;50.948;3.146;2023-11-19T05:44:36;12.10;99.90
15922;DHT22;8060;50.948;3.146;2023-11-19T05:47:07;12.10;99.90
15922;DHT22;8060;50.948;3.146;2023-11-19T05:49:36;12.10;99.90
15922;DHT22;8060;50.948;3.146;2023-11-19T05:52:06;12.10;99.90
15922;DHT22;8060;50.948;3.146;2023-11-19T05:54:36;12.10;99.90
15922;DHT22;8060;50.948;3.146;2023-11-19T05:57:06;12.10;99.90
15922;DHT22;8060;50.948;3.146;2023-11-19T05:59:36;12.10;99.90
15922;DHT22;8060;50.948;3.146;2023-11-19T06:02:04;12.10;99.90
15922;DHT22;8060;50.948;3.146;2023-11-19T06:04:33;12.10;99.90
15922;DHT22;8060;50.948;3.146;2023-11-19T06:07:01;12.10;99.90
15922;DHT22;8060;50.948;3.146;2023-11-19T06:09:31;12.10;99.90
15922;DHT22;8060;50.948;3.146;2023-11-19T06:12:00;12.00;99.90
15922;DHT22;8060;50.948;3.146;2023-11-19T06:14:30;12.10;99.90
15922;DHT22;8060;50.948;3.146;2023-11-19T06:16:58;12.10;99.90
15922;DHT22;8060;50.948;3.146;2023-11-19T06:19:26;12.10;99.90
15922;DHT22;8060;50.948;3.146;2023-11-19T06:21:56;12.10;99.90
15922;DHT22;8060;50.948;3.146;2023-11-19T06:24:25;12.10;99.90
15922;DHT22;8060;50.948;3.146;2023-11-19T06:26:54;12.10;99.90
15922;DHT22;8060;50.948;3.146;2023-11-19T06:29:22;12.10;99.90
15922;DHT22;8060;50.948;3.146;2023-11-19T06:31:50;12.20;99.90
15922;DHT22;8060;50.948;3.146;2023-11-19T06:34:18;12.20;99.90
15922;DHT22;8060;50.948;3.146;2023-11-19T06:36:46;12.20;99.90
15922;DHT22;8060;50.948;3.146;2023-11-19T06:39:15;12.20;99.90
15922;DHT22;8060;50.948;3.146;2023-11-19T06:41:45;12.20;99.90
15922;DHT22;8060;50.948;3.146;2023-11-19T06:44:14;12.10;99.90
15922;DHT22;8060;50.948;3.146;2023-11-19T06:46:42;12.10;99.90
15922;DHT22;8060;50.948;3.146;2023-11-19T06:49:11;12.10;99.90
15922;DHT22;8060;50.948;3.146;2023-11-19T06:51:41;12.10;99.90
15922;DHT22;8060;50.948;3.146;2023-11-19T06:54:10;12.00;99.90
15922;DHT22;8060;50.948;3.146;2023-11-19T06:56:39;12.00;99.90
15922;DHT22;8060;50.948;3.146;2023-11-19T06:59:07;12.00;99.90
15922;DHT22;8060;50.948;3.146;2023-11-19T07:01:37;12.00;99.90
15922;DHT22;8060;50.948;3.146;2023-11-19T07:04:06;12.00;99.90
15922;DHT22;8060;50.948;3.146;2023-11-19T07:06:36;12.00;99.90
15922;DHT22;8060;50.948;3.146;2023-11-19T07:09:04;12.00;99.90
15922;DHT22;8060;50.948;3.146;2023-11-19T07:11:37;12.00;99.90
15922;DHT22;8060;50.948;3.146;2023-11-19T07:14:07;12.00;99.90
15922;DHT22;8060;50.948;3.146;2023-11-19T07:16:37;12.00;99.90
15922;DHT22;8060;50.948;3.146;2023-11-19T07:19:05;12.00;99.90
15922;DHT22;8060;50.948;3.146;2023-11-19T07:21:34;12.00;99.90
15922;DHT22;8060;50.948;3.146;2023-11-19T07:24:06;12.00;99.90
15922;DHT22;8060;50.948;3.146;2023-11-19T07:26:35;12.00;99.90
15922;DHT22;8060;50.948;3.146;2023-11-19T07:29:04;12.10;99.90
15922;DHT22;8060;50.948;3.146;2023-11-19T07:31:34;12.10;99.90
15922;DHT22;8060;50.948;3.146;2023-11-19T07:34:04;12.10;99.90
15922;DHT22;8060;50.948;3.146;2023-11-19T07:36:33;12.10;99.90
15922;DHT22;8060;50.948;3.146;2023-11-19T07:39:03;12.10;99.90
15922;DHT22;8060;50.948;3.146;2023-11-19T07:41:31;12.10;99.90
15922;DHT22;8060;50.948;3.146;2023-11-19T07:44:00;12.10;99.90
15922;DHT22;8060;50.948;3.146;2023-11-19T07:46:28;12.00;99.90
15922;DHT22;8060;50.948;3.146;2023-11-19T07:48:56;12.10;99.90
15922;DHT22;8060;50.948;3.146;2023-11-19T07:51:26;12.10;99.90
15922;DHT22;8060;50.948;3.146;2023-11-19T07:53:54;12.10;99.90
15922;DHT22;8060;50.948;3.146;2023-11-19T07:56:22;12.00;99.90
15922;DHT22;8060;50.948;3.146;2023-11-19T07:58:50;12.10;99.90
15922;DHT22;8060;50.948;3.146;2023-11-19T08:01:18;12.10;99.90
15922;DHT22;8060;50.948;3.146;2023-11-19T08:03:47;12.10;99.90
15922;DHT22;8060;50.948;3.146;2023-11-19T08:06:18;12.20;99.90
15922;DHT22;8060;50.948;3.146;2023-11-19T08:08:47;12.30;99.90
15922;DHT22;8060;50.948;3.146;2023-11-19T08:11:15;12.40;99.90
15922;DHT22;8060;50.948;3.146;2023-11-19T08:13:43;12.40;99.90
15922;DHT22;8060;50.948;3.146;2023-11-19T08:16:12;12.50;99.90
15922;DHT22;8060;50.948;3.146;2023-11-19T08:18:41;12.50;99.90
15922;DHT22;8060;50.948;3.146;2023-11-19T08:21:10;12.40;99.90
15922;DHT22;8060;50.948;3.146;2023-11-19T08:23:38;12.50;99.90
15922;DHT22;8060;50.948;3.146;2023-11-19T08:26:08;12.40;99.90
15922;DHT22;8060;50.948;3.146;2023-11-19T08:28:37;12.50;99.90
15922;DHT22;8060;50.948;3.146;2023-11-19T08:31:05;12.50;99.90
15922;DHT22;8060;50.948;3.146;2023-11-19T08:33:34;12.60;99.90
15922;DHT22;8060;50.948;3.146;2023-11-19T08:36:02;12.70;99.90
15922;DHT22;8060;50.948;3.146;2023-11-19T08:38:31;12.80;99.90
15922;DHT22;8060;50.948;3.146;2023-11-19T08:40:59;12.80;99.90
15922;DHT22;8060;50.948;3.146;2023-11-19T08:43:29;12.90;99.90
15922;DHT22;8060;50.948;3.146;2023-11-19T08:45:58;12.90;99.90
15922;DHT22;8060;50.948;3.146;2023-11-19T08:48:26;12.90;99.90
15922;DHT22;8060;50.948;3.146;2023-11-19T08:50:55;12.90;99.90
15922;DHT22;8060;50.948;3.146;2023-11-19T08:53:23;12.90;99.90
15922;DHT22;8060;50.948;3.146;2023-11-19T08:55:51;12.90;99.90
15922;DHT22;8060;50.948;3.146;2023-11-19T08:58:19;13.00;99.90
15922;DHT22;8060;50.948;3.146;2023-11-19T09:00:48;13.00;99.90
15922;DHT22;8060;50.948;3.146;2023-11-19T09:03:17;13.10;99.90
15922;DHT22;8060;50.948;3.146;2023-11-19T09:05:45;13.10;99.90
15922;DHT22;8060;50.948;3.146;2023-11-19T09:08:13;13.10;99.90
15922;DHT22;8060;50.948;3.146;2023-11-19T09:10:41;13.20;99.90
15922;DHT22;8060;50.948;3.146;2023-11-19T09:13:09;13.40;99.90
15922;DHT22;8060;50.948;3.146;2023-11-19T09:15:38;13.40;99.90
15922;DHT22;8060;50.948;3.146;2023-11-19T09:18:07;13.40;99.90
15922;DHT22;8060;50.948;3.146;2023-11-19T09:20:35;13.40;99.90
15922;DHT22;8060;50.948;3.146;2023-11-19T09:23:06;13.40;99.90
15922;DHT22;8060;50.948;3.146;2023-11-19T09:25:36;13.30;99.90
15922;DHT22;8060;50.948;3.146;2023-11-19T09:28:07;13.20;99.90
15922;DHT22;8060;50.948;3.146;2023-11-19T09:30:36;13.20;99.90
15922;DHT22;8060;50.948;3.146;2023-11-19T09:33:04;13.20;99.90
15922;DHT22;8060;50.948;3.146;2023-11-19T09:35:34;13.20;99.90
15922;DHT22;8060;50.948;3.146;2023-11-19T09:38:03;13.20;99.90
15922;DHT22;8060;50.948;3.146;2023-11-19T09:40:32;13.20;99.90
15922;DHT22;8060;50.948;3.146;2023-11-19T09:43:00;13.20;99.90
15922;DHT22;8060;50.948;3.146;2023-11-19T09:45:29;13.10;99.90
15922;DHT22;8060;50.948;3.146;2023-11-19T09:48:01;13.00;99.90
15922;DHT22;8060;50.948;3.146;2023-11-19T09:50:31;12.90;99.90
15922;DHT22;8060;50.948;3.146;2023-11-19T09:53:01;12.90;99.90
15922;DHT22;8060;50.948;3.146;2023-11-19T09:55:29;12.90;99.90
15922;DHT22;8060;50.948;3.146;2023-11-19T09:57:58;12.80;99.90
15922;DHT22;8060;50.948;3.146;2023-11-19T10:00:27;12.90;99.90
15922;DHT22;8060;50.948;3.146;2023-11-19T10:02:56;13.00;99.90
15922;DHT22;8060;50.948;3.146;2023-11-19T10:05:25;13.00;99.90
15922;DHT22;8060;50.948;3.146;2023-11-19T10:07:54;13.10;99.90
15922;DHT22;8060;50.948;3.146;2023-11-19T10:10:24;13.10;99.90
15922;DHT22;8060;50.948;3.146;2023-11-19T10:12:52;13.10;99.90
15922;DHT22;8060;50.948;3.146;2023-11-19T10:15:24;13.30;99.90
15922;DHT22;8060;50.948;3.146;2023-11-19T10:17:55;13.40;99.90
15922;DHT22;8060;50.948;3.146;2023-11-19T10:20:23;13.50;99.90
15922;DHT22;8060;50.948;3.146;2023-11-19T10:22:53;13.60;99.90
15922;DHT22;8060;50.948;3.146;2023-11-19T10:25:23;13.80;99.90
15922;DHT22;8060;50.948;3.146;2023-11-19T10:27:52;14.10;99.90
15922;DHT22;8060;50.948;3.146;2023-11-19T10:30:21;14.50;99.90
15922;DHT22;8060;50.948;3.146;2023-11-19T10:33:06;14.80;99.90
15922;DHT22;8060;50.948;3.146;2023-11-19T10:35:36;15.00;99.90
15922;DHT22;8060;50.948;3.146;2023-11-19T10:38:13;15.10;99.90
15922;DHT22;8060;50.948;3.146;2023-11-19T10:40:43;14.90;99.90
15922;DHT22;8060;50.948;3.146;2023-11-19T10:43:12;14.70;99.90
15922;DHT22;8060;50.948;3.146;2023-11-19T10:45:41;14.80;99.90
15922;DHT22;8060;50.948;3.146;2023-11-19T10:48:09;14.80;99.90
15922;DHT22;8060;50.948;3.146;2023-11-19T10:50:41;14.80;99.90
15922;DHT22;8060;50.948;3.146;2023-11-19T10:53:10;14.70;99.90
15922;DHT22;8060;50.948;3.146;2023-11-19T10:55:39;14.50;99.90
15922;DHT22;8060;50.948;3.146;2023-11-19T10:58:09;14.50;99.90
15922;DHT22;8060;50.948;3.146;2023-11-19T11:00:39;14.40;99.90
15922;DHT22;8060;50.948;3.146;2023-11-19T11:03:16;14.30;99.90
15922;DHT22;8060;50.948;3.146;2023-11-19T11:05:46;14.20;99.90
15922;DHT22;8060;50.948;3.146;2023-11-19T11:08:16;14.20;99.90
15922;DHT22;8060;50.948;3.146;2023-11-19T11:10:45;14.10;99.90
15922;DHT22;8060;50.948;3.146;2023-11-19T11:13:18;14.10;99.90
15922;DHT22;8060;50.948;3.146;2023-11-19T11:15:47;14.00;99.90
15922;DHT22;8060;50.948;3.146;2023-11-19T11:18:16;14.00;99.90
15922;DHT22;8060;50.948;3.146;2023-11-19T11:20:45;13.90;99.90
15922;DHT22;8060;50.948;3.146;2023-11-19T11:26:50;13.70;99.90
15922;DHT22;8060;50.948;3.146;2023-11-19T11:29:29;13.60;99.90
15922;DHT22;8060;50.948;3.146;2023-11-19T11:32:06;14.10;99.90
15922;DHT22;8060;50.948;3.146;2023-11-19T11:34:53;14.40;99.90
15922;DHT22;8060;50.948;3.146;2023-11-19T11:37:29;14.60;99.90
15922;DHT22;8060;50.948;3.146;2023-11-19T11:39:58;15.10;99.90
15922;DHT22;8060;50.948;3.146;2023-11-19T11:42:36;15.60;99.90
15922;DHT22;8060;50.948;3.146;2023-11-19T11:45:08;16.10;99.90
15922;DHT22;8060;50.948;3.146;2023-11-19T11:48:05;16.30;99.90
15922;DHT22;8060;50.948;3.146;2023-11-19T11:50:36;16.40;99.90
15922;DHT22;8060;50.948;3.146;2023-11-19T11:53:19;16.30;99.90
15922;DHT22;8060;50.948;3.146;2023-11-19T11:55:54;16.10;99.90
15922;DHT22;8060;50.948;3.146;2023-11-19T11:58:27;15.80;99.90
15922;DHT22;8060;50.948;3.146;2023-11-19T12:01:02;15.70;99.90
15922;DHT22;8060;50.948;3.146;2023-11-19T12:03:33;15.90;99.90
15922;DHT22;8060;50.948;3.146;2023-11-19T12:06:01;15.60;99.90
15922;DHT22;8060;50.948;3.146;2023-11-19T12:08:30;15.40;99.90
15922;DHT22;8060;50.948;3.146;2023-11-19T12:10:58;15.10;99.90
15922;DHT22;8060;50.948;3.146;2023-11-19T12:13:54;14.90;99.90
15922;DHT22;8060;50.948;3.146;2023-11-19T12:16:31;14.70;99.90
15922;DHT22;8060;50.948;3.146;2023-11-19T12:19:04;14.70;99.90
15922;DHT22;8060;50.948;3.146;2023-11-19T12:21:34;14.60;99.90
15922;DHT22;8060;50.948;3.146;2023-11-19T12:24:05;14.50;99.90
15922;DHT22;8060;50.948;3.146;2023-11-19T12:26:39;14.60;99.90
15922;DHT22;8060;50.948;3.146;2023-11-19T12:29:07;14.50;99.90
15922;DHT22;8060;50.948;3.146;2023-11-19T12:31:38;14.50;99.90
15922;DHT22;8060;50.948;3.146;2023-11-19T12:34:09;14.40;99.90
15922;DHT22;8060;50.948;3.146;2023-11-19T12:36:40;14.50;99.90
15922;DHT22;8060;50.948;3.146;2023-11-19T12:39:10;14.60;99.90
15922;DHT22;8060;50.948;3.146;2023-11-19T12:41:51;14.60;99.90
15922;DHT22;8060;50.948;3.146;2023-11-19T12:44:19;14.60;99.90
15922;DHT22;8060;50.948;3.146;2023-11-19T12:47:01;14.70;99.90
15922;DHT22;8060;50.948;3.146;2023-11-19T12:49:29;14.60;99.90
15922;DHT22;8060;50.948;3.146;2023-11-19T12:51:57;14.50;99.90
15922;DHT22;8060;50.948;3.146;2023-11-19T12:54:33;14.40;99.90
15922;DHT22;8060;50.948;3.146;2023-11-19T12:57:02;14.40;99.90
15922;DHT22;8060;50.948;3.146;2023-11-19T12:59:31;14.60;99.90
15922;DHT22;8060;50.948;3.146;2023-11-19T13:02:01;14.60;99.90
15922;DHT22;8060;50.948;3.146;2023-11-19T13:04:33;14.50;99.90
15922;DHT22;8060;50.948;3.146;2023-11-19T13:07:01;14.40;99.90
15922;DHT22;8060;50.948;3.146;2023-11-19T13:09:32;14.30;99.90
15922;DHT22;8060;50.948;3.146;2023-11-19T13:12:12;14.30;99.90
15922;DHT22;8060;50.948;3.146;2023-11-19T13:14:41;14.20;99.90
15922;DHT22;8060;50.948;3.146;2023-11-19T13:17:14;14.10;99.90
15922;DHT22;8060;50.948;3.146;2023-11-19T13:19:43;14.10;99.90
15922;DHT22;8060;50.948;3.146;2023-11-19T13:22:12;14.00;99.90
15922;DHT22;8060;50.948;3.146;2023-11-19T13:24:40;14.00;99.90
15922;DHT22;8060;50.948;3.146;2023-11-19T13:27:09;13.90;99.90
15922;DHT22;8060;50.948;3.146;2023-11-19T13:29:37;13.80;99.90
15922;DHT22;8060;50.948;3.146;2023-11-19T13:32:06;13.70;99.90
15922;DHT22;8060;50.948;3.146;2023-11-19T13:34:36;13.60;99.90
15922;DHT22;8060;50.948;3.146;2023-11-19T13:37:04;13.50;99.90
15922;DHT22;8060;50.948;3.146;2023-11-19T13:39:32;13.50;99.90
15922;DHT22;8060;50.948;3.146;2023-11-19T13:42:00;13.40;99.90
15922;DHT22;8060;50.948;3.146;2023-11-19T13:44:32;13.50;99.90
15922;DHT22;8060;50.948;3.146;2023-11-19T13:47:00;13.80;99.90
15922;DHT22;8060;50.948;3.146;2023-11-19T13:49:29;14.20;99.90
15922;DHT22;8060;50.948;3.146;2023-11-19T13:51:58;14.40;99.90
15922;DHT22;8060;50.948;3.146;2023-11-19T13:54:27;14.40;99.90
15922;DHT22;8060;50.948;3.146;2023-11-19T13:56:55;14.30;99.90
15922;DHT22;8060;50.948;3.146;2023-11-19T13:59:25;14.20;99.90
15922;DHT22;8060;50.948;3.146;2023-11-19T14:01:53;14.00;99.90
15922;DHT22;8060;50.948;3.146;2023-11-19T14:04:21;14.00;99.90
15922;DHT22;8060;50.948;3.146;2023-11-19T14:06:49;13.90;99.90
15922;DHT22;8060;50.948;3.146;2023-11-19T14:09:19;13.90;99.90
15922;DHT22;8060;50.948;3.146;2023-11-19T14:11:48;14.00;99.90
15922;DHT22;8060;50.948;3.146;2023-11-19T14:14:18;13.90;99.90
15922;DHT22;8060;50.948;3.146;2023-11-19T14:16:46;13.80;99.90
15922;DHT22;8060;50.948;3.146;2023-11-19T14:19:14;13.80;99.90
15922;DHT22;8060;50.948;3.146;2023-11-19T14:21:42;13.80;99.90
15922;DHT22;8060;50.948;3.146;2023-11-19T14:24:12;13.80;99.90
15922;DHT22;8060;50.948;3.146;2023-11-19T14:26:41;13.70;99.90
15922;DHT22;8060;50.948;3.146;2023-11-19T14:29:09;13.60;99.90
15922;DHT22;8060;50.948;3.146;2023-11-19T14:31:37;13.60;99.90
15922;DHT22;8060;50.948;3.146;2023-11-19T14:34:06;13.70;99.90
15922;DHT22;8060;50.948;3.146;2023-11-19T14:36:35;13.70;99.90
15922;DHT22;8060;50.948;3.146;2023-11-19T14:39:03;13.60;99.90
15922;DHT22;8060;50.948;3.146;2023-11-19T14:41:31;13.60;99.90
15922;DHT22;8060;50.948;3.146;2023-11-19T14:44:00;13.50;99.90
15922;DHT22;8060;50.948;3.146;2023-11-19T14:46:29;13.60;99.90
15922;DHT22;8060;50.948;3.146;2023-11-19T14:48:58;13.50;99.90
15922;DHT22;8060;50.948;3.146;2023-11-19T14:51:26;13.50;99.90
15922;DHT22;8060;50.948;3.146;2023-11-19T14:53:54;13.50;99.90
15922;DHT22;8060;50.948;3.146;2023-11-19T14:56:22;13.50;99.90
15922;DHT22;8060;50.948;3.146;2023-11-19T14:58:50;13.50;99.90
15922;DHT22;8060;50.948;3.146;2023-11-19T15:01:20;13.40;99.90
15922;DHT22;8060;50.948;3.146;2023-11-19T15:03:48;13.40;99.90
15922;DHT22;8060;50.948;3.146;2023-11-19T15:06:23;13.30;99.90
15922;DHT22;8060;50.948;3.146;2023-11-19T15:08:54;13.30;99.90
15922;DHT22;8060;50.948;3.146;2023-11-19T15:11:22;13.30;99.90
15922;DHT22;8060;50.948;3.146;2023-11-19T15:13:50;13.30;99.90
15922;DHT22;8060;50.948;3.146;2023-11-19T15:16:20;13.30;99.90
15922;DHT22;8060;50.948;3.146;2023-11-19T15:18:53;13.30;99.90
15922;DHT22;8060;50.948;3.146;2023-11-19T15:21:21;13.30;99.90
15922;DHT22;8060;50.948;3.146;2023-11-19T15:23:49;13.40;99.90
15922;DHT22;8060;50.948;3.146;2023-11-19T15:26:17;13.30;99.90
15922;DHT22;8060;50.948;3.146;2023-11-19T15:28:46;13.30;99.90
15922;DHT22;8060;50.948;3.146;2023-11-19T15:31:14;13.30;99.90
15922;DHT22;8060;50.948;3.146;2023-11-19T15:33:44;13.30;99.90
15922;DHT22;8060;50.948;3.146;2023-11-19T15:36:15;13.30;99.90
15922;DHT22;8060;50.948;3.146;2023-11-19T15:38:44;13.30;99.90
15922;DHT22;8060;50.948;3.146;2023-11-19T15:41:15;13.30;99.90
15922;DHT22;8060;50.948;3.146;2023-11-19T15:43:43;13.30;99.90
15922;DHT22;8060;50.948;3.146;2023-11-19T15:46:11;13.40;99.90
15922;DHT22;8060;50.948;3.146;2023-11-19T15:48:39;13.30;99.90
15922;DHT22;8060;50.948;3.146;2023-11-19T15:51:09;13.30;99.90
15922;DHT22;8060;50.948;3.146;2023-11-19T15:53:37;13.30;99.90
15922;DHT22;8060;50.948;3.146;2023-11-19T15:56:06;13.30;99.90
15922;DHT22;8060;50.948;3.146;2023-11-19T15:58:34;13.30;99.90
15922;DHT22;8060;50.948;3.146;2023-11-19T16:01:03;13.20;99.90
15922;DHT22;8060;50.948;3.146;2023-11-19T16:03:31;13.20;99.90